Terminal Aerodrome Forecast
Issued by NWS

Home | Current Version | Previous Version | Graphics & Text | Print | Product List | Glossary On
Versions: 1 2 3 4 5 6 7 8 9 10 11 12 13 14 15
000
FTUS43 KMPX 101700
TAFRWF
TAF
KRWF 101737Z 1018/1118 17012G20KT P6SM FEW080 SCT250
     FM110000 17013KT P6SM VCSH SCT050 OVC080 PROB30 1104/1109 4SM
      TSRA OVC035CB
     FM111000 17007KT P6SM SCT040 BKN080=

USA.gov is the U.S. government's official web portal to all federal, state and local government web resources and services.